Sedro Woolley, WA (98284)

5:37 PM PST on December 18, 2014 (GMT -0800)
RAWS SEDRO WOOLLEY WA US | Change Station
CLOSE
Current Station
Personal Weather Station
Location: Sedro Woolley, WA
Elevation: 171 ft
Nearby Weather Stations

Elev 171 ft 48.52 °N, 122.22 °W | Updated 55 minutes ago

Mostly Cloudy
Mostly Cloudy
47 °F
Feels Like 44 °F
N
6
Wind Variable Wind from SE
Gusts 14.0 mph

Today
High -- | Low -- °F
--% Chance of Precip.
Yesterday
High -- | Low -- °F
Precip. -- in
7:56 AM 4:14 PM
Waning Crescent, 11% visible
Pressure 29.76 in
Visibility 10.0 miles
Clouds Mostly Cloudy 3400 ft
Mostly Cloudy 4000 ft
Windchill 44 °F
Dew Point 43 °F
Humidity 86%
Rainfall 0.72 in
Snow Depth Not available.
UV 0 out of 12
Pollen .40 out of 12
Air Quality Not available.
Flu Activity Not available.
METAR KBVS 190115Z AUTO 14012G18KT 10SM BKN034 BKN040 12/07 A2976 RMK A01 P000

More Conditions Fewer Conditions

Pressure 29.76 in
Visibility 10.0 miles
Clouds Mostly Cloudy 3400 ft
Mostly Cloudy 4000 ft
Windchill 44 °F
Dew Point 43 °F
Humidity 86%
Rainfall 0.72 in
Snow Depth Not available.
UV 0 out of 12
Pollen .40 out of 12
Air Quality Not available.
Flu Activity Not available.
METAR KBVS 190115Z AUTO 14012G18KT 10SM BKN034 BKN040 12/07 A2976 RMK A01 P000

More Conditions Fewer Conditions

10-Day Weather Forecast

Almanac

Astronomy

Dec. 18, 2014 Rise Set
Actual Time
Civil Twilight
Nautical Twilight
Astronomical Twilight
Moon
Length of Visible Light
Length of Day
Tomorrow will be .
, % of the Moon is Illuminated

Today's Extremes

State Highs State Lows

Community

WunderPhotos

Upload Photos

1,779,032 photos uploaded!

WunderBlogs® & News

Nearby

Air Quality

  Air Quality AQ Index Pollutant
Not available.

Snow Depth

Station Depth Elevation

Earthquake Activity

City Distance Mag. Time & Date
Minimum magnitude displayed is 2.5.

Coastal Water Temperatures

Place Temperature

Nearby Weather Stations